createdAt,value
2019-02-11T00:01:45.759Z,95.50
2019-02-11T00:04:14.953Z,95.47
2019-02-11T00:06:44.116Z,95.83
2019-02-11T00:09:13.330Z,96.18
2019-02-11T00:11:42.594Z,96.55
2019-02-11T00:14:11.770Z,96.98
2019-02-11T00:16:40.969Z,97.45
2019-02-11T00:19:11.104Z,97.30
2019-02-11T00:21:40.256Z,97.00
2019-02-11T00:24:09.436Z,96.78
2019-02-11T00:26:38.637Z,96.33
2019-02-11T00:29:07.811Z,95.49
2019-02-11T00:31:36.989Z,95.03
2019-02-11T00:34:06.185Z,94.55
2019-02-11T00:36:35.337Z,94.52
2019-02-11T00:39:05.766Z,93.85
2019-02-11T00:41:34.960Z,93.40
2019-02-11T00:44:04.206Z,93.35
2019-02-11T00:46:33.393Z,93.18
2019-02-11T00:49:02.611Z,93.01
2019-02-11T00:51:31.779Z,93.25
2019-02-11T00:54:00.972Z,93.29
2019-02-11T00:56:31.159Z,93.53
2019-02-11T00:59:00.330Z,93.79
2019-02-11T01:01:29.491Z,93.58
2019-02-11T01:03:58.698Z,93.52
2019-02-11T01:06:27.882Z,93.37
2019-02-11T01:08:57.072Z,93.67
2019-02-11T01:11:26.273Z,93.87
2019-02-11T01:13:55.450Z,93.84
2019-02-11T01:16:24.625Z,93.78
2019-02-11T01:18:53.827Z,93.78
2019-02-11T01:21:22.995Z,94.00
2019-02-11T01:23:52.163Z,93.89
2019-02-11T01:26:21.468Z,94.08
2019-02-11T01:28:50.629Z,94.31
2019-02-11T01:31:19.800Z,94.53
2019-02-11T01:33:48.999Z,94.56
2019-02-11T01:36:18.173Z,94.70
2019-02-11T01:38:47.360Z,94.78
2019-02-11T01:41:16.566Z,94.59
2019-02-11T01:43:45.742Z,94.51
2019-02-11T01:46:14.976Z,94.42
2019-02-11T01:48:44.176Z,94.37
2019-02-11T01:51:13.352Z,94.21
2019-02-11T01:53:42.576Z,94.16
2019-02-11T01:56:11.764Z,94.20
2019-02-11T01:58:40.956Z,94.26
2019-02-11T02:01:10.151Z,94.05
2019-02-11T02:03:39.342Z,93.75
2019-02-11T02:06:08.507Z,93.81
2019-02-11T02:08:37.748Z,93.92
2019-02-11T02:11:06.939Z,93.82
2019-02-11T02:13:44.430Z,93.73
2019-02-11T02:16:07.028Z,93.80
2019-02-11T02:18:36.208Z,93.65
2019-02-11T02:21:05.437Z,93.57
2019-02-11T02:23:34.645Z,92.98
2019-02-11T02:26:03.857Z,92.50
2019-02-11T02:28:33.071Z,92.35
2019-02-11T02:31:02.280Z,91.90
2019-02-11T02:33:31.456Z,91.38
2019-02-11T02:36:00.640Z,90.97
2019-02-11T02:38:29.837Z,90.64
2019-02-11T02:40:59.021Z,90.44
2019-02-11T02:43:28.202Z,90.00
2019-02-11T02:45:57.391Z,89.68
2019-02-11T02:48:26.558Z,89.23
2019-02-11T02:50:55.736Z,88.75
2019-02-11T02:53:24.942Z,88.39
2019-02-11T02:55:54.115Z,88.48
2019-02-11T02:58:23.294Z,88.93
2019-02-11T03:00:52.491Z,89.55
2019-02-11T03:03:21.663Z,90.03
2019-02-11T03:05:52.813Z,90.36
2019-02-11T03:08:21.728Z,90.54
2019-02-11T03:10:50.894Z,90.38
2019-02-11T03:13:20.117Z,90.37
2019-02-11T03:15:50.258Z,90.14
2019-02-11T03:18:19.416Z,90.21
2019-02-11T03:20:48.634Z,90.21
2019-02-11T03:23:17.887Z,90.00
2019-02-11T03:25:46.970Z,89.89
2019-02-11T03:28:16.200Z,90.05
2019-02-11T03:30:45.391Z,90.03
2019-02-11T03:33:14.603Z,89.89
2019-02-11T03:35:43.759Z,89.89
2019-02-11T03:38:12.924Z,89.75
2019-02-11T03:40:42.092Z,90.00
2019-02-11T03:43:13.191Z,90.42
2019-02-11T03:45:42.358Z,90.98
2019-02-11T03:48:11.518Z,91.34
2019-02-11T03:50:40.705Z,91.70
2019-02-11T03:53:09.957Z,91.86
2019-02-11T03:55:39.147Z,92.11
2019-02-11T03:58:08.398Z,92.29
2019-02-11T04:00:37.801Z,92.29
2019-02-11T04:03:06.991Z,92.28
2019-02-11T04:05:36.163Z,92.19
2019-02-11T04:08:05.338Z,92.00
2019-02-11T04:10:52.572Z,91.89
2019-02-11T04:13:36.830Z,91.81
2019-02-11T04:16:05.984Z,91.64
2019-02-11T04:18:35.157Z,91.55
2019-02-11T04:21:04.333Z,91.25
2019-02-11T04:23:33.525Z,91.21
2019-02-11T04:26:02.698Z,91.20
2019-02-11T04:28:32.137Z,91.51
2019-02-11T04:31:01.324Z,91.57
2019-02-11T04:33:30.496Z,91.70
2019-02-11T04:35:59.618Z,91.77
2019-02-11T04:38:28.757Z,91.93
2019-02-11T04:40:57.962Z,91.95
2019-02-11T04:43:27.141Z,91.76
2019-02-11T04:45:56.257Z,91.75
2019-02-11T04:48:25.450Z,91.80
2019-02-11T04:50:54.627Z,91.93
2019-02-11T04:53:23.837Z,91.88
2019-02-11T04:55:52.934Z,91.49
2019-02-11T04:58:22.117Z,91.55
2019-02-11T05:00:51.572Z,91.45
2019-02-11T05:03:20.746Z,91.32
2019-02-11T05:05:49.904Z,91.50
2019-02-11T05:08:19.099Z,91.63
2019-02-11T05:10:48.285Z,91.67
2019-02-11T05:13:17.460Z,91.46
2019-02-11T05:15:46.662Z,91.01
2019-02-11T05:18:16.913Z,90.80
2019-02-11T05:20:46.390Z,90.63
2019-02-11T05:23:15.590Z,90.67
2019-02-11T05:25:44.810Z,90.81
2019-02-11T05:28:13.977Z,90.49
2019-02-11T05:30:43.309Z,90.07
2019-02-11T05:33:12.513Z,89.73
2019-02-11T05:35:41.686Z,89.55
2019-02-11T05:38:10.885Z,89.20
2019-02-11T05:40:40.059Z,89.33
2019-02-11T05:43:09.254Z,89.40
2019-02-11T05:45:38.410Z,89.72
2019-02-11T05:48:07.599Z,90.13
2019-02-11T05:50:36.756Z,90.46
2019-02-11T05:53:05.949Z,90.72
2019-02-11T05:55:35.120Z,90.71
2019-02-11T05:58:04.300Z,90.93
2019-02-11T06:00:33.501Z,91.49
2019-02-11T06:03:02.679Z,92.09
2019-02-11T06:05:31.859Z,92.33
2019-02-11T06:08:01.048Z,92.29
2019-02-11T06:10:30.248Z,92.25
2019-02-11T06:12:59.423Z,91.92
2019-02-11T06:15:28.601Z,91.83
2019-02-11T06:17:57.801Z,91.70
2019-02-11T06:20:26.995Z,91.86
2019-02-11T06:22:56.174Z,91.97
2019-02-11T06:25:25.371Z,92.19
2019-02-11T06:27:54.547Z,92.24
2019-02-11T06:30:23.800Z,92.29
2019-02-11T06:32:53.015Z,92.21
2019-02-11T06:35:22.186Z,91.95
2019-02-11T06:37:51.376Z,91.76
2019-02-11T06:40:20.541Z,91.68
2019-02-11T06:42:49.737Z,91.76
2019-02-11T06:45:18.969Z,92.09
2019-02-11T06:47:48.155Z,92.31
2019-02-11T06:50:17.330Z,92.38
2019-02-11T06:52:46.519Z,92.33
2019-02-11T06:55:15.693Z,92.28
2019-02-11T06:57:44.887Z,92.11
2019-02-11T07:00:15.510Z,92.15
2019-02-11T07:02:44.696Z,92.15
2019-02-11T07:05:13.907Z,92.39
2019-02-11T07:07:43.104Z,92.58
2019-02-11T07:10:12.524Z,92.90
2019-02-11T07:12:41.718Z,93.42
2019-02-11T07:15:21.223Z,93.90
2019-02-11T07:17:44.299Z,94.09
2019-02-11T07:20:13.589Z,94.40
2019-02-11T07:22:42.753Z,94.74
2019-02-11T07:25:11.985Z,95.02
2019-02-11T07:27:41.270Z,94.93
2019-02-11T07:30:12.768Z,94.94
2019-02-11T07:32:41.940Z,95.03
2019-02-11T07:35:11.210Z,95.07
2019-02-11T07:37:40.375Z,94.49
2019-02-11T07:40:13.779Z,93.41
2019-02-11T07:42:53.112Z,93.17
2019-02-11T07:45:35.715Z,93.11
2019-02-11T07:48:05.018Z,93.09
2019-02-11T07:50:34.216Z,91.61
2019-02-11T07:53:04.406Z,88.81
2019-02-11T07:55:33.594Z,85.05
2019-02-11T07:58:02.778Z,83.34
2019-02-11T08:00:31.964Z,81.69
2019-02-11T08:03:01.260Z,80.18
2019-02-11T08:05:30.418Z,76.99
2019-02-11T08:07:59.870Z,75.38
2019-02-11T08:10:29.370Z,73.19
2019-02-11T08:12:58.532Z,73.19
2019-02-11T08:15:27.712Z,72.14
2019-02-11T08:17:58.208Z,71.45
2019-02-11T08:20:27.489Z,70.44
2019-02-11T08:22:56.660Z,70.53
2019-02-11T08:25:25.838Z,70.94
2019-02-11T08:27:55.016Z,71.86
2019-02-11T08:30:24.275Z,73.34
2019-02-11T08:32:53.444Z,73.58
2019-02-11T08:35:22.692Z,71.67
2019-02-11T08:37:51.858Z,70.32
2019-02-11T08:40:21.126Z,67.19
2019-02-11T08:42:50.306Z,68.54
2019-02-11T08:45:19.504Z,70.27
2019-02-11T08:47:48.717Z,68.72
2019-02-11T08:50:18.634Z,68.97
2019-02-11T08:52:47.890Z,70.46
2019-02-11T08:55:17.134Z,70.62
2019-02-11T08:57:46.323Z,69.29
2019-02-11T09:00:15.570Z,70.37
2019-02-11T09:02:44.828Z,70.55
2019-02-11T09:05:14.143Z,70.11
2019-02-11T09:07:43.335Z,70.38
2019-02-11T09:10:13.335Z,70.82
2019-02-11T09:12:42.504Z,70.69
2019-02-11T09:15:12.974Z,71.74
2019-02-11T09:17:42.150Z,75.25
2019-02-11T09:20:11.760Z,77.71
2019-02-11T09:22:40.994Z,77.71
2019-02-11T09:25:10.859Z,78.53
2019-02-11T09:27:40.068Z,79.07
2019-02-11T09:30:17.030Z,80.42
2019-02-11T09:32:46.233Z,80.34
2019-02-11T09:35:15.419Z,80.56
2019-02-11T09:37:44.593Z,80.72
2019-02-11T09:40:15.727Z,81.07
2019-02-11T09:42:44.974Z,81.78
2019-02-11T09:45:20.051Z,82.06
2019-02-11T09:47:49.334Z,81.59
2019-02-11T09:50:33.167Z,81.05
2019-02-11T09:53:03.298Z,80.21
2019-02-11T09:55:33.916Z,79.89
2019-02-11T09:58:03.156Z,79.73
2019-02-11T10:00:32.435Z,79.62
2019-02-11T10:03:01.610Z,79.62
2019-02-11T10:05:30.778Z,78.93
2019-02-11T10:07:59.965Z,79.38
2019-02-11T10:10:29.129Z,79.19
2019-02-11T10:12:58.316Z,79.70
2019-02-11T10:15:27.507Z,79.50
2019-02-11T10:17:57.119Z,79.73
2019-02-11T10:20:26.372Z,79.52
2019-02-11T10:22:55.603Z,79.51
2019-02-11T10:25:27.427Z,78.67
2019-02-11T10:28:02.820Z,78.02
2019-02-11T10:30:32.010Z,78.42
2019-02-11T10:33:01.183Z,78.50
2019-02-11T10:35:30.432Z,78.59
2019-02-11T10:37:59.646Z,79.01
2019-02-11T10:40:28.842Z,79.50
2019-02-11T10:42:58.034Z,80.41
2019-02-11T10:45:27.293Z,80.72
2019-02-11T10:47:56.498Z,80.56
2019-02-11T10:50:25.689Z,78.57
2019-02-11T10:52:54.954Z,78.38
2019-02-11T10:55:24.289Z,79.54
2019-02-11T10:57:53.482Z,80.52
2019-02-11T11:00:41.363Z,82.14
2019-02-11T11:03:28.321Z,83.24
2019-02-11T11:05:57.538Z,83.60
2019-02-11T11:08:26.726Z,84.43
2019-02-11T11:10:55.966Z,85.57
2019-02-11T11:13:25.170Z,86.30
2019-02-11T11:15:54.366Z,86.59
2019-02-11T11:18:23.561Z,86.77
2019-02-11T11:20:52.773Z,86.69
2019-02-11T11:23:21.951Z,86.66
2019-02-11T11:25:51.188Z,87.10
2019-02-11T11:28:20.388Z,86.87
2019-02-11T11:30:49.564Z,86.21
2019-02-11T11:33:18.729Z,85.19
2019-02-11T11:35:47.943Z,83.69
2019-02-11T11:38:17.114Z,83.21
2019-02-11T11:40:46.291Z,82.46
2019-02-11T11:43:15.488Z,82.29
2019-02-11T11:45:44.668Z,81.89
2019-02-11T11:48:13.833Z,81.34
2019-02-11T11:50:43.128Z,80.97
2019-02-11T11:53:12.305Z,81.18
2019-02-11T11:55:41.541Z,81.09
2019-02-11T11:58:10.730Z,81.45
2019-02-11T12:00:39.987Z,82.38
2019-02-11T12:03:09.218Z,82.67
2019-02-11T12:05:38.499Z,83.00
2019-02-11T12:08:07.687Z,82.17
2019-02-11T12:10:36.872Z,82.17
2019-02-11T12:13:21.789Z,80.75
2019-02-11T12:15:37.274Z,75.87
2019-02-11T12:18:06.787Z,74.13
2019-02-11T12:20:36.075Z,71.94
2019-02-11T12:23:05.239Z,69.81
2019-02-11T12:25:34.423Z,70.45
2019-02-11T12:28:03.626Z,70.45
2019-02-11T12:30:32.887Z,69.79
2019-02-11T12:33:02.462Z,69.39
2019-02-11T12:35:31.635Z,69.84
2019-02-11T12:38:00.797Z,69.85
2019-02-11T12:40:30.006Z,70.26
2019-02-11T12:42:59.205Z,70.64
2019-02-11T12:45:28.377Z,70.74
2019-02-11T12:47:57.543Z,70.28
2019-02-11T12:50:26.851Z,70.87
2019-02-11T12:52:56.036Z,70.87
2019-02-11T12:55:25.222Z,71.24
2019-02-11T12:57:54.428Z,71.60
2019-02-11T13:00:24.318Z,72.67
2019-02-11T13:02:53.499Z,73.67
2019-02-11T13:05:40.226Z,73.53
2019-02-11T13:07:53.614Z,73.01
2019-02-11T13:10:22.922Z,73.06
2019-02-11T13:12:52.205Z,72.59
2019-02-11T13:15:53.225Z,71.67
2019-02-11T13:17:52.361Z,70.74
2019-02-11T13:20:21.610Z,70.91
2019-02-11T13:22:50.784Z,71.18
2019-02-11T13:25:20.017Z,71.07
2019-02-11T13:27:49.246Z,68.03
2019-02-11T13:30:23.228Z,68.12
2019-02-11T13:32:52.487Z,66.86
2019-02-11T13:35:21.693Z,65.83
2019-02-11T13:37:54.747Z,66.40
2019-02-11T13:40:21.701Z,66.44
2019-02-11T13:42:50.909Z,66.54
2019-02-11T13:45:21.289Z,67.43
2019-02-11T13:47:56.045Z,67.35
2019-02-11T13:50:24.484Z,66.44
2019-02-11T13:52:54.565Z,66.64
2019-02-11T13:55:24.140Z,66.59
2019-02-11T13:57:53.794Z,66.25
2019-02-11T14:00:33.858Z,65.62
2019-02-11T14:03:05.694Z,65.32
2019-02-11T14:05:35.223Z,65.38
2019-02-11T14:08:05.907Z,65.97
2019-02-11T14:10:35.341Z,66.02
2019-02-11T14:13:05.188Z,66.23
2019-02-11T14:15:34.428Z,67.17
2019-02-11T14:18:13.075Z,67.02
2019-02-11T14:20:39.932Z,68.62
2019-02-11T14:23:09.254Z,67.36
2019-02-11T14:25:44.860Z,66.08
2019-02-11T14:28:09.398Z,64.43
2019-02-11T14:30:38.649Z,64.15
2019-02-11T14:33:08.052Z,64.80
2019-02-11T14:35:37.440Z,64.69
2019-02-11T14:38:06.647Z,64.44
2019-02-11T14:40:35.918Z,64.82
2019-02-11T14:43:05.164Z,64.66
2019-02-11T14:45:34.349Z,65.24
2019-02-11T14:48:03.599Z,64.74
2019-02-11T14:50:32.792Z,64.74
2019-02-11T14:53:01.989Z,65.43
2019-02-11T14:55:31.179Z,65.53
2019-02-11T14:58:01.896Z,65.34
2019-02-11T15:00:31.074Z,64.19
2019-02-11T15:03:00.328Z,63.70
2019-02-11T15:05:29.509Z,63.89
2019-02-11T15:07:58.685Z,64.64
2019-02-11T15:10:27.896Z,65.43
2019-02-11T15:12:57.078Z,66.04
2019-02-11T15:15:26.276Z,65.95
2019-02-11T15:17:55.462Z,66.05
2019-02-11T15:20:25.489Z,66.33
2019-02-11T15:22:54.687Z,64.74
2019-02-11T15:25:23.941Z,65.32
2019-02-11T15:27:53.109Z,66.28
2019-02-11T15:30:22.314Z,66.93
2019-02-11T15:32:51.477Z,67.83
2019-02-11T15:35:20.641Z,67.97
2019-02-11T15:37:49.858Z,67.70
2019-02-11T15:40:22.091Z,67.81
2019-02-11T15:42:51.272Z,68.34
2019-02-11T15:45:20.471Z,67.98
2019-02-11T15:47:49.658Z,68.09
2019-02-11T15:50:18.904Z,67.76
2019-02-11T15:52:48.134Z,67.77
2019-02-11T15:55:21.255Z,67.32
2019-02-11T15:57:50.405Z,67.73
2019-02-11T16:00:23.362Z,68.12
2019-02-11T16:02:52.631Z,68.14
2019-02-11T16:05:21.821Z,68.46
2019-02-11T16:07:51.008Z,68.94
2019-02-11T16:10:25.870Z,69.09
2019-02-11T16:12:55.088Z,69.31
2019-02-11T16:15:24.370Z,69.17
2019-02-11T16:17:53.590Z,69.58
2019-02-11T16:20:22.762Z,69.97
2019-02-11T16:22:51.948Z,70.26
2019-02-11T16:25:21.235Z,70.23
2019-02-11T16:27:50.422Z,70.26
2019-02-11T16:30:22.325Z,70.33
2019-02-11T16:32:51.543Z,70.90
2019-02-11T16:35:20.803Z,71.14
2019-02-11T16:37:49.976Z,71.33
2019-02-11T16:40:24.756Z,71.76
2019-02-11T16:42:53.986Z,72.32
2019-02-11T16:45:23.514Z,72.74
2019-02-11T16:47:52.709Z,73.09
2019-02-11T16:50:21.883Z,73.40
2019-02-11T16:52:51.070Z,73.68
2019-02-11T16:55:20.269Z,74.08
2019-02-11T16:57:49.451Z,74.22
2019-02-11T17:00:19.684Z,74.31
2019-02-11T17:02:48.877Z,74.72
2019-02-11T17:05:18.044Z,75.17
2019-02-11T17:07:47.243Z,75.78
2019-02-11T17:10:16.563Z,75.63
2019-02-11T17:12:45.898Z,76.09
2019-02-11T17:15:19.281Z,76.47
2019-02-11T17:17:48.555Z,76.92
2019-02-11T17:20:17.886Z,76.84
2019-02-11T17:22:47.118Z,76.89
2019-02-11T17:25:16.283Z,77.32
2019-02-11T17:27:45.482Z,77.54
2019-02-11T17:30:17.752Z,77.78
2019-02-11T17:32:46.944Z,77.79
2019-02-11T17:35:16.138Z,78.00
2019-02-11T17:37:45.322Z,78.43
2019-02-11T17:40:14.770Z,78.64
2019-02-11T17:42:44.021Z,78.95
2019-02-11T17:45:21.185Z,79.36
2019-02-11T17:47:50.389Z,79.37
2019-02-11T17:50:19.631Z,79.53
2019-02-11T17:52:50.656Z,79.88
2019-02-11T17:55:19.861Z,80.20
2019-02-11T17:57:49.335Z,80.13
2019-02-11T18:00:25.748Z,80.18
2019-02-11T18:02:54.919Z,80.31
2019-02-11T18:05:24.094Z,80.67
2019-02-11T18:07:53.303Z,80.72
2019-02-11T18:10:22.477Z,80.79
2019-02-11T18:12:53.413Z,80.72
2019-02-11T18:15:22.703Z,81.04
2019-02-11T18:17:53.506Z,81.11
2019-02-11T18:20:22.689Z,81.41
2019-02-11T18:22:51.898Z,81.63
2019-02-11T18:25:21.086Z,81.68
2019-02-11T18:27:50.281Z,81.93
2019-02-11T18:30:22.254Z,81.99
2019-02-11T18:32:53.241Z,81.86
2019-02-11T18:35:22.986Z,81.88
2019-02-11T18:37:52.471Z,82.10
2019-02-11T18:40:21.652Z,82.13
2019-02-11T18:42:50.868Z,82.26
2019-02-11T18:45:20.110Z,82.12
2019-02-11T18:47:50.588Z,82.08
2019-02-11T18:50:20.993Z,81.71
2019-02-11T18:52:50.938Z,81.73
2019-02-11T18:55:21.371Z,81.65
2019-02-11T18:57:50.967Z,81.60
2019-02-11T19:00:20.445Z,81.48
2019-02-11T19:02:49.898Z,81.04
2019-02-11T19:05:19.146Z,80.95
2019-02-11T19:07:48.343Z,81.04
2019-02-11T19:10:18.973Z,81.27
2019-02-11T19:12:48.230Z,81.33
2019-02-11T19:15:18.693Z,81.51
2019-02-11T19:17:47.979Z,81.71
2019-02-11T19:20:17.931Z,81.86
2019-02-11T19:22:47.083Z,82.30
2019-02-11T19:25:16.274Z,82.56
2019-02-11T19:27:45.617Z,82.73
2019-02-11T19:30:21.010Z,83.01
2019-02-11T19:32:50.385Z,83.17
2019-02-11T19:35:19.719Z,83.46
2019-02-11T19:37:48.904Z,83.60
2019-02-11T19:40:19.537Z,83.84
2019-02-11T19:42:49.179Z,84.03
2019-02-11T19:45:20.977Z,84.28
2019-02-11T19:47:50.303Z,84.51
2019-02-11T19:50:19.613Z,84.79
2019-02-11T19:52:48.856Z,85.23
2019-02-11T19:55:18.171Z,85.54
2019-02-11T19:57:47.390Z,85.83
2019-02-11T20:00:23.447Z,86.08
2019-02-11T20:02:52.655Z,86.35
2019-02-11T20:05:21.848Z,86.67
2019-02-11T20:07:51.025Z,87.12
2019-02-11T20:10:21.765Z,87.37
2019-02-11T20:12:50.981Z,87.66
2019-02-11T20:15:23.204Z,87.99
2019-02-11T20:17:52.391Z,88.24
2019-02-11T20:20:22.927Z,88.53
2019-02-11T20:22:52.181Z,88.64
2019-02-11T20:25:21.459Z,89.02
2019-02-11T20:27:50.639Z,89.11
2019-02-11T20:30:25.606Z,89.35
2019-02-11T20:32:56.351Z,89.68
2019-02-11T20:35:25.599Z,89.91
2019-02-11T20:37:54.795Z,90.05
2019-02-11T20:40:28.542Z,90.24
2019-02-11T20:42:57.719Z,90.62
2019-02-11T20:45:29.966Z,90.86
2019-02-11T20:47:59.290Z,91.11
2019-02-11T20:50:28.516Z,91.28
2019-02-11T20:52:57.721Z,91.58
2019-02-11T20:55:26.903Z,91.69
2019-02-11T20:57:58.515Z,91.88
2019-02-11T21:00:27.885Z,92.09
2019-02-11T21:02:57.049Z,92.21
2019-02-11T21:05:26.392Z,92.33
2019-02-11T21:07:55.684Z,92.34
2019-02-11T21:10:25.900Z,92.40
2019-02-11T21:12:55.753Z,92.53
2019-02-11T21:15:26.790Z,92.60
2019-02-11T21:17:55.960Z,92.67
2019-02-11T21:20:28.267Z,92.75
2019-02-11T21:22:57.501Z,92.79
2019-02-11T21:25:26.664Z,92.75
2019-02-11T21:27:55.852Z,92.72
2019-02-11T21:30:25.055Z,92.77
2019-02-11T21:32:54.227Z,92.84
2019-02-11T21:35:23.401Z,92.90
2019-02-11T21:37:52.611Z,92.91
2019-02-11T21:40:21.801Z,92.87
2019-02-11T21:42:50.997Z,92.78
2019-02-11T21:45:20.172Z,92.68
2019-02-11T21:47:49.348Z,92.62
2019-02-11T21:50:26.362Z,92.53
2019-02-11T21:52:51.272Z,92.54
2019-02-11T21:55:22.715Z,92.45
2019-02-11T21:57:51.881Z,92.40
2019-02-11T22:00:22.218Z,92.34
2019-02-11T22:02:51.398Z,92.20
2019-02-11T22:05:20.579Z,92.16
2019-02-11T22:07:49.780Z,92.11
2019-02-11T22:10:23.545Z,91.99
2019-02-11T22:12:52.728Z,91.90
2019-02-11T22:15:21.914Z,91.85
2019-02-11T22:17:51.164Z,91.84
2019-02-11T22:20:21.272Z,91.80
2019-02-11T22:22:50.550Z,91.76
2019-02-11T22:25:19.719Z,91.74
2019-02-11T22:27:48.898Z,91.66
2019-02-11T22:30:23.023Z,91.65
2019-02-11T22:32:52.195Z,91.70
2019-02-11T22:35:21.389Z,91.66
2019-02-11T22:37:51.327Z,91.61
2019-02-11T22:40:20.518Z,91.55
2019-02-11T22:42:49.706Z,91.46
2019-02-11T22:45:27.266Z,91.27
2019-02-11T22:47:56.453Z,91.03
2019-02-11T22:50:25.634Z,90.99
2019-02-11T22:52:54.824Z,91.04
2019-02-11T22:55:24.002Z,91.17
2019-02-11T22:57:53.186Z,91.31
2019-02-11T23:00:27.245Z,91.43
2019-02-11T23:02:56.425Z,91.57
2019-02-11T23:05:25.629Z,91.72
2019-02-11T23:07:54.823Z,91.95
2019-02-11T23:10:24.056Z,92.10
2019-02-11T23:12:53.229Z,92.14
2019-02-11T23:15:22.461Z,92.27
2019-02-11T23:17:51.629Z,92.27
2019-02-11T23:20:20.964Z,92.25
2019-02-11T23:22:50.171Z,92.21
2019-02-11T23:25:19.364Z,92.17
2019-02-11T23:27:48.553Z,92.23
2019-02-11T23:30:17.750Z,92.33
2019-02-11T23:32:46.940Z,92.35
2019-02-11T23:35:16.138Z,92.38
2019-02-11T23:37:45.318Z,92.39
2019-02-11T23:40:14.501Z,92.37
2019-02-11T23:42:43.795Z,92.35
2019-02-11T23:45:13.988Z,92.16
2019-02-11T23:47:43.276Z,92.01
2019-02-11T23:50:12.730Z,91.75
2019-02-11T23:52:41.910Z,91.63
2019-02-11T23:55:11.260Z,91.47
2019-02-11T23:57:40.434Z,91.29
